ESOE/ORB METAR and TAF weather

Enter ICAO airport designator
Station Type Date Time Source
ESOE METAR 2018/07/21 22:50 UTC NOAA

ESOE 212250Z AUTO 21008KT 9999 NCD 14/13 Q1007


Station Type Date Time Source
ESOE Decoded METAR 2018/07/21 22:50 UTC NOAA

Orebro Private , Sweden (ESOE) 59-14N 015-03E
Jul 21, 2018 - 06:50 PM EDT / 2018.07.21 2250 UTC
Wind: from the SSW (210 degrees) at 9 MPH (8 KT):0
Visibility: greater than 7 mile(s):0
Temperature: 57 F (14 C)
Dew Point: 55 F (13 C)
Relative Humidity: 93%
Pressure (altimeter): 29.74 in. Hg (1007 hPa)
ob: ESOE 212250Z AUTO 21008KT 9999 NCD 14/13 Q1007
cycle: 23

Station Type Date Time Source
ESOE TAF 2016/03/16 04:36 UTC NOAA

TAF TAF ESOE 160330Z 1604/1624 23005KT 9000 BR NSC PROB40 1604/1607 1200 BR


Example: see airport list